Terminal Aerodrome Forecast
Issued by NWS Goodland, KS

Home | Current Version | Previous Version | Text Only | Print | Product List | Glossary On
Versions: 1 2 3 4 5 6 7 8 9 10 11 12 13 14 15 16 17 18
000
FTUS43 KGLD 310135 AAC
TAFGLD
TAF AMD
KGLD 310135Z 3102/3124 18017KT P6SM OVC008
     FM310400 17012KT 6SM BR VCSH OVC008
     FM311100 VRB05KT 2SM BR OVC007
     FM311600 27006KT 6SM -RA SCT010 OVC025=

USA.gov is the U.S. government's official web portal to all federal, state and local government web resources and services.